Tiempo atmosférico en la estación meteorológica de Segovia, Segovia (1005 m.)



Fecha
DESCASC
Temp. máxima en grados centígrados (hora)
DESCASC
Temp. mínima en grados centígrados (hora)
DESCASC
Temp. media en grados centígrados
DESCASC
Racha de viento máxima en m/sg (hora)
DESCASC
Velocidad máxima media en intervalos de 10 minutos(hora)
DESCASC
Precipitaciones diarias en mm
DESCASC
Precipitaciones de 00:00 a 06:00 en mm
DESCASC
Precipitaciones de 06:00 a 12:00 en mm
DESCASC
Precipitaciones de 12:00 a 18:00 en mm
DESCASC
Precipitaciones de 18:00 a 24:00 en mm
DESCASC
20-09-2020 19.7 (15:00) 13 (00:10) 16.4 10.83 (15:30) 6.39 (15:40) 0.6 0.2 0 0 0.4
19-09-2020 18.2 (17:10) 12.6 (01:20) 15.4 13.33 (07:20) 9.44 (12:20) 11 9.6 0 0.6 0.8
17-09-2020 23.5 (15:40) 14.6 (00:00) 19.1 15.28 (00:10) 10 (00:10) 3.6 0.6 0 0 3
16-09-2020 27.5 (16:10) 14.6 (08:20) 21.1 16.39 (23:59) 10.28 (23:59) 0 0 0 0 0
15-09-2020 26.8 (16:10) 15.4 (00:00) 21.1 10.83 (14:00) 6.11 (17:20) 3.4 3.4 0 0 0
14-09-2020 26.9 (17:20) 18.7 (00:00) 22.8 16.39 (23:30) 8.61 (02:00) 0.6 0 0 0 0.6
13-09-2020 30.9 (16:00) 19.3 (00:00) 25.1 10 (17:30) 6.67 (17:30) 0 0 0 0 0
12-09-2020 30.6 (15:50) 14.8 (08:10) 22.7 7.22 (16:20) 3.61 (14:50) 0 0 0 0 0
11-09-2020 28.6 (17:40) 14.4 (00:00) 21.5 6.94 (15:40) 3.61 (16:50) 0 0 0 0 0
10-09-2020 27.4 (16:30) 12.2 (00:00) 19.8 8.33 (15:10) 3.89 (15:10) 0 0 0 0 0
09-09-2020 26.6 (17:50) 12.8 (08:00) 19.7 6.39 (16:40) 3.61 (15:00) 0 0 0 0 0
08-09-2020 25.5 (18:20) 7.1 (00:00) 16.3 7.5 (17:00) 5 (19:30) 0 0 0 0 0
07-09-2020 23 (17:30) 7.8 (07:40) 15.4 9.17 (20:00) 4.72 (19:50) 0 0 0 0 0
06-09-2020 28.7 (16:50) 12.6 (00:00) 20.7 9.44 (19:10) 5 (00:50) 0 0 0 0 0
05-09-2020 31.3 (17:10) 16.4 (00:00) 23.8 9.72 (20:50) 5.83 (20:50) 0 0 0 0 0
04-09-2020 30.8 (16:50) 18 (00:00) 24.4 10 (15:40) 6.11 (13:00) 0 0 0 0 0
03-09-2020 30 (17:00) 12.8 (00:00) 21.4 5.83 (14:20) 4.17 (15:30) 0 0 0 0 0
02-09-2020 25.9 (16:20) 10.1 (00:00) 18 7.22 (14:40) 3.33 (00:10) 0 0 0 0 0
01-09-2020 25.7 (17:10) 13.6 (00:00) 19.7 6.67 (15:40) 4.44 (23:40) 0 0 0 0 0
31-08-2020 23.2 (16:50) 8.5 (00:00) 15.9 6.94 (14:20) 3.89 (14:20) 0 0 0 0 0
30-08-2020 18.5 (17:10) 5.8 (00:00) 12.2 9.72 (18:40) 5.28 (02:20) 0 0 0 0 0
29-08-2020 19.1 (17:20) 8.6 (00:00) 13.9 11.94 (21:40) 6.39 (16:30) 0 0 0 0 0
28-08-2020 26.3 (16:50) 15.3 (00:00) 20.8 10.83 (18:00) 6.11 (19:40) 0 0 0 0 0
27-08-2020 32.5 (18:00) 17.5 (00:00) 25 6.67 (15:30) 4.17 (18:40) 0 0 0 0 0
26-08-2020 33.2 (17:10) 17.5 (00:00) 25.4 6.94 (18:30) 3.89 (18:30) 0 0 0 0 0
25-08-2020 33 (17:00) 17.4 (00:00) 25.2 6.94 (14:30) 3.89 (14:50) 0 0 0 0 0
24-08-2020 30.3 (17:30) 13.1 (07:30) 21.7 8.33 (16:20) 3.61 (17:10) 0 0 0 0 0

Gráficas

Temp. máximas Temp. mínimas Temp. medias Precipitaciones Rachas de viento máximas Velocidades máximas media en intervalos de 10 minutos

Datos horarios

Fecha y hora oficial Temperatura (ºC) Velocidad del viento (km/h) Dirección del viento Racha (km/h) Dirección de racha Precipitación (mm) Presión (hPa) Tendencia (hPa) Humedad (%)
2020-09-22 23:00:00 16.2 6 Sur 10 Sur 0 902 0.9 64
2020-09-22 22:00:00 17 5 Sudoeste 9 Oeste 0 901.9 1.1 59
2020-09-22 21:00:00 17.5 5 Oeste 15 Noroeste 0 901.4 -- 56
2020-09-22 20:00:00 18.5 10 Oeste 24 Oeste 0 901.1 -- 50
2020-09-22 19:00:00 20.2 13 Oeste 23 Noroeste 0 900.8 -- 46
2020-09-22 18:00:00 20.6 15 Oeste 29 Oeste 0 900.9 -- 40
2020-09-22 17:00:00 20.9 15 Oeste 23 Oeste 0 901.3 -- 40
2020-09-22 16:00:00 20 10 Oeste 27 Oeste 0 901.8 -- 39
2020-09-22 15:00:00 20.4 8 Sudoeste 22 Sudoeste 0 902.4 -- 39
2020-09-22 14:00:00 19.6 14 Oeste 21 Oeste 0 903 -- 47
2020-09-22 13:00:00 18.7 8 Oeste 15 Oeste 0 903.3 -- 52
2020-09-22 12:00:00 17.2 6 Oeste 12 Noroeste 0 903.7 -- 56
2020-09-22 11:00:00 15.6 4 Oeste 9 Oeste 0 903.5 -- 61
2020-09-22 10:00:00 14.5 3 Oeste 9 Sudeste 0 903.4 -- 69
2020-09-22 09:00:00 11.6 5 Este 7 Este 0 903.2 -- 79
2020-09-22 08:00:00 10.6 4 Este 8 Este 0 903.1 -- 80
2020-09-22 07:00:00 11 4 Este 9 Sudeste 0 903 -- 79
2020-09-22 06:00:00 11.3 5 Este 9 Sudeste 0 903.1 -- 78
2020-09-22 05:00:00 11.8 6 Sudeste 11 Sur 0 903.3 -- 73
2020-09-22 04:00:00 12.6 6 Sur 11 Sur 0 903.8 -- 69
2020-09-22 03:00:00 12.3 7 Sudeste 12 Sur 0 904.1 -- 76
2020-09-22 02:00:00 12.3 5 Sudeste 11 Sudoeste 0 904.5 -- 76
2020-09-22 01:00:00 13.2 7 Sur 12 Sudoeste 0 904.7 -- 72
2020-09-22 00:00:00 14.6 6 Este 10 Este 0 904.7 -- 71
2020-09-21 23:00:00 16.1 2 Sudoeste 7 Norte 0 904.8 -- 64
2020-09-21 22:00:00 16.7 4 Norte 10 Noroeste 0 904.6 -- 54
2020-09-21 21:00:00 16.6 5 Noroeste 21 Noroeste 0 904.3 -- 55
2020-09-21 20:00:00 18.5 7 Norte 16 Noroeste 0 904.1 -- 55
2020-09-21 19:00:00 19.7 10 Noroeste 21 Noroeste 0 903.7 -- 49
2020-09-21 18:00:00 20.5 8 Noroeste 17 Oeste 0 903.7 -- 45
2020-09-21 17:00:00 20.7 8 Oeste 17 Noroeste 0 904 -- 50
2020-09-21 16:00:00 20.4 5 Oeste 14 Noroeste 0 904.3 -- 49
2020-09-21 15:00:00 19.3 11 Oeste 20 Oeste 0 904.8 -- 52
2020-09-21 14:00:00 17.3 4 Noroeste 16 Oeste 0 905.3 -- 64
2020-09-21 13:00:00 17.1 8 Oeste 13 Oeste 0 905.7 -- 68
2020-09-21 12:00:00 15.3 7 Sudoeste 14 Sudoeste 0 906 -- 76
2020-09-21 11:00:00 13.7 4 Oeste 8 Oeste 0 905.8 -- 86
2020-09-21 10:00:00 12.7 3 Norte 6 Norte 0 905.7 -- 88
2020-09-21 09:00:00 12.2 4 Norte 7 Norte 0 905.7 -- 90
2020-09-21 08:00:00 11.9 2 Oeste 6 Sudeste 0 905 -- 90
2020-09-21 07:00:00 12.3 4 Sur 8 Sudoeste 0 904.8 -- 88
2020-09-21 06:00:00 12.8 5 Sudoeste 10 Sur 0 905 -- 87
2020-09-21 05:00:00 12.6 6 Sudoeste 18 Sudoeste 0 905.1 -- 88
2020-09-21 04:00:00 13.1 11 Sudoeste 17 Sudoeste 0 905.3 -- 87
2020-09-21 03:00:00 14.1 8 Sudoeste 18 Sudoeste 0 905.7 -- 91
2020-09-21 02:00:00 14.3 11 Sudoeste 16 Sudoeste 0 905.8 -- 90
2020-09-21 01:00:00 14.3 12 Sudoeste 18 Sudoeste 0 905.8 -- 89
2020-09-21 00:00:00 14.2 7 Sudoeste 14 Sur 0.2 905.8 -- 90
2020-09-20 23:00:00 14.3 9 Sudoeste 17 Sudoeste 0.2 905.8 -- 90
2020-09-20 22:00:00 14.8 8 Oeste 17 Oeste 0 905.7 -- 86
2020-09-20 21:00:00 15.3 10 Noroeste 22 Oeste 0 904.9 -- 82
2020-09-20 20:00:00 17.3 13 Oeste 32 Oeste 0 904.3 -- 71
2020-09-20 19:00:00 18.2 17 Oeste 32 Oeste 0 903.8 -- 67
2020-09-20 18:00:00 18.6 18 Oeste 33 Oeste 0 903.7 -- 65
2020-09-20 17:00:00 18.9 14 Oeste 37 Oeste 0 903.5 -- 68
2020-09-20 16:00:00 18.6 20 Oeste 39 Oeste 0 903.7 -- 72
2020-09-20 15:00:00 19.4 15 Oeste 28 Oeste 0 903.9 -- 63
2020-09-20 14:00:00 19.4 10 Oeste 19 Oeste 0 904 -- 64
2020-09-20 13:00:00 18.3 5 Oeste 15 Oeste 0 904.3 -- 69
2020-09-20 12:00:00 17.4 6 Noroeste 14 Oeste 0 904.5 -- 75
2020-09-20 11:00:00 16.3 3 Oeste 7 Este 0 904.4 -- 77
2020-09-20 10:00:00 14.9 4 Norte 9 Sudeste 0 904.1 -- 87
2020-09-20 09:00:00 14.3 5 Sudeste 8 Sudeste 0 903.8 -- 87
2020-09-20 08:00:00 13.8 3 Este 10 Sudeste 0 903.6 -- 90
2020-09-20 07:00:00 13.8 7 Sudeste 9 Sudeste 0 903.5 -- 88
2020-09-20 06:00:00 13.9 4 Nordeste 10 Este 0 903.7 -- 88
2020-09-20 05:00:00 13.6 6 Este 13 Este 0 903.9 -- 90
2020-09-20 04:00:00 13.4 7 Sudeste 15 Sudoeste 0 904.3 -- 92
2020-09-20 03:00:00 13.3 9 Sur 22 Sudoeste 0 904.8 -- 92
2020-09-20 02:00:00 13.4 9 Sudeste 14 Sudeste 0 904.6 -- 90
2020-09-20 01:00:00 13.4 7 Sudeste 10 Sudeste 0.2 904.7 -- 90
2020-09-20 00:00:00 13.1 5 Este 15 Este 0 904.8 -- 91
2020-09-19 23:00:00 13.2 7 Este 10 Este 0.8 904.9 -- 90
2020-09-19 22:00:00 14.1 6 Sudoeste 14 Sudoeste 0 904.5 -- 80
2020-09-19 21:00:00 14.8 10 Oeste 26 Oeste 0 904 -- 71
2020-09-19 20:00:00 16 19 Oeste 30 Oeste 0 903.1 -- 61
2020-09-19 19:00:00 17.1 23 Oeste 41 Oeste 0 902.7 -- 61
2020-09-19 18:00:00 17.4 26 Oeste 40 Oeste 0 902.3 -- 59
2020-09-19 17:00:00 18 18 Oeste 35 Sudoeste 0 902.2 -- 66
2020-09-19 16:00:00 17.2 17 Sudoeste 31 Sudoeste 0 902.3 -- 73
2020-09-19 15:00:00 15.5 21 Sudoeste 33 Oeste 0.6 902.5 -- 79
2020-09-19 14:00:00 16.8 22 Oeste 39 Oeste 0 902.4 -- 69
2020-09-19 13:00:00 16.9 29 Oeste 48 Sudoeste 0 902.4 -- 65
2020-09-19 12:00:00 16.9 28 Sudoeste 41 Oeste 0 901.9 -- 68
2020-09-19 11:00:00 15.3 22 Sudoeste 32 Sudoeste 0 901.7 -- 78
2020-09-19 10:00:00 15 19 Sur 28 Sur 0 900.9 -- 78
2020-09-19 09:00:00 14.5 20 Sur 39 Sur 0 899.9 -- 78
2020-09-19 08:00:00 14.2 23 Sur 48 Sur 0 899.4 -- 78
2020-09-19 07:00:00 14.2 26 Sur 39 Sur 0 898.8 -- 78
2020-09-19 06:00:00 13.8 16 Sur 30 Sur 0.2 898.7 -- 79
2020-09-19 05:00:00 13.6 18 Sur 35 Sur 0 899 -- 76
2020-09-19 04:00:00 13.2 13 Sur 27 Sur 0 899.5 -- 79
2020-09-19 03:00:00 13.6 12 Sur 24 Sudoeste 0 899.5 -- 82
2020-09-19 02:00:00 13.1 9 Sudeste 21 Este 3 899.2 -- 91
2020-09-19 01:00:00 12.7 8 Este 15 Este 6.4 899.5 -- 94
2020-09-19 00:00:00 13 5 Nordeste 23 Sudeste 2.8 899.8 -- 89
2020-09-18 23:00:00 13.3 17 Sudeste 35 Sudeste 0.8 900 -- 84
2020-09-18 22:00:00 14 25 Sudeste 47 Sur 0 899.5 -- 73
2020-09-18 21:00:00 13.1 10 Sur 23 Sur 0 899.3 -- 78
2020-09-18 20:00:00 12.2 4 Oeste 21 Nordeste 0.2 899.6 -- 91
2020-09-18 19:00:00 13 11 Sudeste 41 Sudoeste 5.4 899.8 -- 87
2020-09-18 18:00:00 15.3 3 Norte 19 Sudeste 1.2 900.1 -- 82
2020-09-18 17:00:00 15.3 14 Sudeste 40 Sur 1.2 899.7 -- 80
2020-09-18 16:00:00 20.3 15 Sur 40 Sur 0 898.9 -- 54
2020-09-18 15:00:00 20.5 14 Sur 37 Sur 0 899.7 -- 53
2020-09-18 14:00:00 19.1 9 Sur 42 Sudoeste 0 900 -- 58
2020-09-18 13:00:00 17.9 20 Oeste 28 Oeste 0 900 -- 68
2020-09-18 12:00:00 15.4 6 Nordeste 12 Sudoeste 0 900.5 -- 88
2020-09-18 11:00:00 13.7 5 Sudoeste 16 Noroeste 0.2 900.8 -- 92
2020-09-18 10:00:00 12.8 8 Sur 28 Oeste 11.2 900.1 -- 94
2020-09-18 09:00:00 14 11 Oeste 32 Sur 0 899.4 -- 86
2020-09-18 08:00:00 15.3 19 Sur 41 Sur 0 898.2 -- 77
2020-09-18 07:00:00 11.6 17 Este 25 Este 0.8 898.6 -- 95
2020-09-18 06:00:00 11.3 6 Sudoeste 58 Sudoeste 18.8 899.4 -- 95
2020-09-18 05:00:00 16.2 9 Sur 16 Sur 1.4 898.5 -- 83
2020-09-18 04:00:00 16 8 Sudeste 17 Sudeste 0.6 898.5 -- 87
2020-09-18 03:00:00 16.3 11 Sur 23 Sur 0 898.7 -- 81
2020-09-18 02:00:00 16.6 19 Sur 32 Sudeste 0.4 899.6 -- 77
2020-09-18 01:00:00 17.1 19 Sudeste 32 Sudeste 0 900.2 -- 74
2020-09-18 00:00:00 16.4 14 Sudeste 28 Sur 0.8 900.8 -- 77
2020-09-17 23:00:00 16.1 17 Sudeste 28 Sudeste 0.2 901.2 -- 81
2020-09-17 22:00:00 15.1 23 Sudoeste 50 Sudoeste 0.4 901.1 -- 77
2020-09-17 21:00:00 16.9 17 Este 50 Sur 1.6 900.3 -- 75
2020-09-17 20:00:00 20.6 23 Sur 42 Sur 0 900.2 -- 57
2020-09-17 19:00:00 21.8 17 Sur 36 Sudeste 0 899.8 -- 53
2020-09-17 18:00:00 22.4 12 Este 32 Sur 0 900.4 -- 53
2020-09-17 17:00:00 22 15 Este 34 Este 0 900.6 -- 53
2020-09-17 16:00:00 22.8 16 Sur 35 Sudeste 0 900.8 -- 46
2020-09-17 15:00:00 22 21 Sudeste 40 Sur 0 901.3 -- 49
2020-09-17 14:00:00 22.6 18 Sur 31 Sur 0 901.8 -- 49
2020-09-17 13:00:00 20.6 16 Sudeste 34 Sudeste 0 902.1 -- 56
2020-09-17 12:00:00 21 17 Sudeste 29 Sudeste 0 902.4 -- 56
2020-09-17 11:00:00 19.6 13 Sudeste 28 Sur 0 902.7 -- 61
2020-09-17 10:00:00 18.5 19 Sur 35 Sur 0 902.7 -- 65
2020-09-17 09:00:00 17.7 17 Sudeste 35 Sudeste 0 902.6 -- 70
2020-09-17 08:00:00 17.9 14 Sur 31 Sur 0 902.6 -- 67
2020-09-17 07:00:00 18 10 Sudeste 20 Sur 0 902.1 -- 65
2020-09-17 06:00:00 17.6 8 Oeste 22 Sudeste 0 902.5 -- 67
2020-09-17 05:00:00 18 16 Sudeste 31 Sur 0 902.8 -- 64
2020-09-17 04:00:00 18.5 23 Sur 33 Sur 0 903.3 -- 61
2020-09-17 03:00:00 17.1 5 Este 25 Sudoeste 0 904 -- 73
2020-09-17 02:00:00 17 16 Sudoeste 33 Sudoeste 0.2 904.3 -- 75
2020-09-17 01:00:00 17.6 13 Este 55 Este 0.4 904.3 -- 71
2020-09-17 00:00:00 20.2 37 Sudeste 59 Sudeste 0 904.9 -- 54
2020-09-16 23:00:00 21.7 13 Sudoeste 32 Sudoeste 0 904 -- 43
2020-09-16 22:00:00 22.2 8 Nordeste 14 Este 0 903.8 -- 43
2020-09-16 21:00:00 23.7 6 Este 21 Sur 0 903.6 -- 37
2020-09-16 20:00:00 25 8 Sur 24 Sudeste 0 903.7 -- 33
2020-09-16 19:00:00 26 12 Sudeste 28 Este 0 903.6 -- 29
2020-09-16 18:00:00 27 17 Sudeste 30 Sudeste 0 903.8 -- 27
2020-09-16 17:00:00 27 18 Sudeste 31 Sudeste 0 904.1 -- 28
2020-09-16 16:00:00 27 17 Sudeste 30 Sudeste 0 904.7 -- 30
2020-09-16 15:00:00 26.8 14 Sudeste 28 Sur 0 905.2 -- 31
2020-09-16 14:00:00 26.4 16 Sudeste 30 Sudeste 0 905.9 -- 29
2020-09-16 13:00:00 25.8 8 Oeste 18 Noroeste 0 906.4 -- 36
2020-09-16 12:00:00 24.3 9 Oeste 16 Oeste 0 906.9 -- 43
2020-09-16 11:00:00 22.4 4 Norte 8 Nordeste 0 907 -- 46
2020-09-16 10:00:00 19.4 4 Este 9 Este 0 907.3 -- 57
2020-09-16 09:00:00 15.8 4 Este 6 Sudeste 0 907.3 -- 71
2020-09-16 08:00:00 14.8 2 Noroeste 10 Este 0 906.9 -- 70
2020-09-16 07:00:00 16 8 Este 17 Este 0 906.9 -- 65
2020-09-16 06:00:00 15.9 9 Este 14 Este 0 907.2 -- 66
2020-09-16 05:00:00 16.2 12 Este 17 Este 0 907.7 -- 64
2020-09-16 04:00:00 16.5 8 Este 14 Este 0 907.8 -- 63
2020-09-16 03:00:00 16.7 8 Este 14 Este 0 908 -- 62
2020-09-16 02:00:00 16.8 5 Este 11 Este 0 908.3 -- 62
2020-09-16 01:00:00 16.8 10 Sudeste 14 Sudeste 0 908.3 -- 62
2020-09-16 00:00:00 17 5 Este 18 Oeste 0 908.2 -- 61
2020-09-15 23:00:00 18.7 5 Nordeste 11 Este 0 907.8 -- 56
2020-09-15 22:00:00 19.9 5 Este 13 Sudeste 0 907.6 -- 52
2020-09-15 21:00:00 21.3 9 Sudeste 17 Sur 0 907.2 -- 46
2020-09-15 20:00:00 23.5 14 Sur 23 Sur 0 907 -- 41
2020-09-15 19:00:00 25 17 Sur 29 Sur 0 906.8 -- 36
2020-09-15 18:00:00 26.1 17 Sudoeste 33 Sudoeste 0 906.9 -- 35
2020-09-15 17:00:00 26.7 13 Sudoeste 32 Sudoeste 0 907.1 -- 35
2020-09-15 16:00:00 26.6 15 Sudoeste 35 Sudoeste 0 907.3 -- 35
2020-09-15 15:00:00 26 16 Sudoeste 34 Sudoeste 0 907.8 -- 36
2020-09-15 14:00:00 25 21 Sudoeste 39 Sudoeste 0 908.1 -- 39
2020-09-15 13:00:00 23.9 19 Sudoeste 29 Oeste 0 908.6 -- 48
2020-09-15 12:00:00 22.5 11 Oeste 19 Sudoeste 0 908.9 -- 58
2020-09-15 11:00:00 19.7 4 Noroeste 10 Oeste 0 908.9 -- 66
2020-09-15 10:00:00 18 4 Noroeste 7 Noroeste 0 908.5 -- 75
2020-09-15 09:00:00 16.4 2 Este 6 Sur 0 908.2 -- 80
2020-09-15 08:00:00 16.4 3 Sur 17 Sudeste 0 907.7 -- 75
2020-09-15 07:00:00 15.5 6 Este 11 Sudeste 0 907.5 -- 84
2020-09-15 06:00:00 15.6 2 Sur 8 Este 0 907.4 -- 84
2020-09-15 05:00:00 16.1 5 Este 16 Este 0 907.4 -- 85
2020-09-15 04:00:00 15.9 9 Sudeste 25 Este 0 907.8 -- 84
2020-09-15 03:00:00 15.7 8 Nordeste 33 Noroeste 2.6 908.3 -- 87
2020-09-15 02:00:00 18 5 Oeste 21 Sur 0.6 907.5 -- 72
2020-09-15 01:00:00 18.2 9 Este 28 Sudeste 0.2 907.9 -- 68
2020-09-15 00:00:00 18.7 8 Noroeste 59 Oeste 0.6 907.7 -- 70
2020-09-14 23:00:00 22.6 8 Norte 42 Sudeste 0 906.8 -- 40
2020-09-14 22:00:00 22.9 23 Este 49 Sudeste 0 906 -- 40
2020-09-14 21:00:00 24.4 19 Sudeste 39 Sudeste 0 905.6 -- 34
2020-09-14 20:00:00 25.2 18 Sudeste 33 Sudeste 0 906 -- 33
2020-09-14 19:00:00 26 19 Sudeste 30 Sudeste 0 906.6 -- 32
2020-09-14 18:00:00 26.7 17 Sudeste 28 Sudeste 0 906.8 -- 31
2020-09-14 17:00:00 26.2 6 Este 18 Sur 0 906.9 -- 31
2020-09-14 16:00:00 25.6 13 Sudeste 33 Sudeste 0 907.7 -- 34
2020-09-14 15:00:00 25.5 17 Sudeste 32 Sudeste 0 908.3 -- 35
2020-09-14 14:00:00 23.9 6 Oeste 19 Oeste 0 908.6 -- 38
2020-09-14 13:00:00 24.7 7 Sudeste 18 Sudeste 0 908.7 -- 35
2020-09-14 12:00:00 24.7 5 Nordeste 21 Nordeste 0 908.7 -- 35
2020-09-14 11:00:00 23.8 6 Nordeste 21 Sudeste 0 908.6 -- 35
2020-09-14 10:00:00 23.4 5 Nordeste 15 Sur 0 908.6 -- 33
2020-09-14 09:00:00 20.9 10 Sur 40 Sudeste 0 908.4 -- 40
2020-09-14 08:00:00 21.1 19 Sudeste 43 Sudeste 0 907.7 -- 38
2020-09-14 07:00:00 21.6 22 Sudeste 38 Sudeste 0 907.4 -- 36
2020-09-14 06:00:00 22.1 19 Este 54 Este 0 907.1 -- 39
2020-09-14 05:00:00 22.2 25 Este 48 Sudeste 0 907.3 -- 40
2020-09-14 04:00:00 21.9 24 Este 50 Este 0 907.8 -- 44
2020-09-14 03:00:00 22.1 22 Este 56 Sudeste 0 908.4 -- 45
2020-09-14 02:00:00 23 31 Sudeste 45 Sudeste 0 908.5 -- 40
2020-09-14 01:00:00 23.7 28 Sudeste 44 Sudeste 0 908.6 -- 36
2020-09-14 00:00:00 24.4 15 Sudeste 27 Sudeste 0 908.5 -- 31
2020-09-13 23:00:00 23.7 10 Este 18 Sudeste 0 908.6 -- 31
2020-09-13 22:00:00 25 12 Sudeste 26 Sudeste 0 908.6 -- 28
2020-09-13 21:00:00 25.5 17 Sudeste 33 Sudeste 0 908.1 -- 28
2020-09-13 20:00:00 26.9 19 Sudeste 36 Sudeste 0 907.8 -- 25
2020-09-13 19:00:00 28.1 18 Sudeste 28 Sudeste 0 907.7 -- 23
2020-09-13 18:00:00 28.9 18 Sudeste 36 Sudeste 0 907.9 -- 23
2020-09-13 17:00:00 29.1 19 Sudeste 30 Sudeste 0 908 -- 23
2020-09-13 16:00:00 30.7 19 Sur 33 Sudeste 0 908.3 -- 20
2020-09-13 15:00:00 28.9 21 Sur 36 Sur 0 908.6 -- 23
2020-09-13 14:00:00 30.5 14 Sudeste 36 Sudeste 0 908.7 -- 21
2020-09-13 13:00:00 30.4 15 Sudeste 30 Sudeste 0 908.9 -- 21
2020-09-13 12:00:00 29.6 17 Sudeste 28 Sudeste 0 909 -- 22
2020-09-13 11:00:00 28.2 4 Oeste 19 Este 0 908.7 -- 25
2020-09-13 10:00:00 26.3 9 Sudeste 19 Sudeste 0 908.5 -- 29
2020-09-13 09:00:00 22.5 11 Este 19 Este 0 908.1 -- 36
2020-09-13 08:00:00 21 13 Este 22 Este 0 907.8 -- 38
2020-09-13 07:00:00 21 5 Este 17 Sudeste 0 907.5 -- 38
2020-09-13 06:00:00 21.6 9 Sudeste 28 Este 0 907.2 -- 36
2020-09-13 05:00:00 21.9 12 Sudeste 23 Sudeste 0 907.1 -- 36
2020-09-13 04:00:00 21.4 7 Este 14 Este 0 907.2 -- 35
2020-09-13 03:00:00 22.3 9 Este 27 Este 0 907.4 -- 33
2020-09-13 02:00:00 22.6 17 Este 28 Este 0 907.4 -- 29
2020-09-13 01:00:00 19.6 6 Este 11 Sudeste 0 907.6 -- 38
2020-09-13 00:00:00 20 6 Este 16 Sudeste 0 907.5 -- 37
2020-09-12 23:00:00 20.9 5 Este 13 Este 0 907.4 -- 36
2020-09-12 22:00:00 23.8 6 Nordeste 20 Nordeste 0 907 -- 28
2020-09-12 21:00:00 25.4 11 Sudeste 17 Sudeste 0 906.3 -- 19
2020-09-12 20:00:00 27.6 6 Norte 15 Noroeste 0 905.6 -- 18
2020-09-12 19:00:00 28.6 9 Norte 20 Sudoeste 0 905.3 -- 18
2020-09-12 18:00:00 30.1 9 Oeste 21 Noroeste 0 905.2 -- 17
2020-09-12 17:00:00 29.9 7 Sudoeste 26 Oeste 0 905.3 -- 17
2020-09-12 16:00:00 30.5 9 Oeste 19 Oeste 0 905.6 -- 17
2020-09-12 15:00:00 29.8 11 Oeste 20 Sudoeste 0 905.8 -- 17
2020-09-12 14:00:00 29.7 4 Sur 17 Noroeste 0 906.2 -- 18
2020-09-12 13:00:00 28.2 8 Norte 19 Este 0 906.4 -- 18
2020-09-12 12:00:00 26.1 4 Norte 10 Norte 0 906.3 -- 25
2020-09-12 11:00:00 23.9 5 Noroeste 9 Noroeste 0 906.1 -- 30
2020-09-12 10:00:00 21.3 5 Este 8 Este 0 905.8 -- 39
2020-09-12 09:00:00 16.9 5 Este 7 Este 0 905.5 -- 50
2020-09-12 08:00:00 14.9 5 Este 8 Este 0 904.9 -- 54
2020-09-12 07:00:00 15.4 5 Este 8 Este 0 904.4 -- 51
2020-09-12 06:00:00 16.2 3 Este 10 Este 0 904 -- 46
2020-09-12 05:00:00 16.8 7 Este 10 Este 0 904 -- 46
2020-09-12 04:00:00 16.6 6 Nordeste 7 Nordeste 0 904 -- 47
2020-09-12 03:00:00 17.4 4 Sudeste 10 Sudeste 0 904.1 -- 43
2020-09-12 02:00:00 17.7 7 Sudeste 15 Este 0 904 -- 41
2020-09-12 01:00:00 18.8 12 Este 17 Este 0 903.9 -- 39
2020-09-12 00:00:00 20.1 9 Este 19 Nordeste 0 903.8 -- 36
2020-09-11 23:00:00 20.9 12 Nordeste 18 Nordeste 0 903.6 -- 30
2020-09-11 22:00:00 21.7 13 Nordeste 20 Este 0 903.3 -- 32
2020-09-11 21:00:00 24.1 11 Nordeste 19 Nordeste 0 902.7 -- 28
2020-09-11 20:00:00 25.9 9 Norte 21 Nordeste 0 902.4 -- 26
2020-09-11 19:00:00 27.1 8 Noroeste 20 Noroeste 0 902.3 -- 22
2020-09-11 18:00:00 27.8 9 Nordeste 22 Noroeste 0 902.4 -- 21
2020-09-11 17:00:00 28.4 7 Noroeste 22 Oeste 0 902.6 -- 21
2020-09-11 16:00:00 27.8 5 Norte 25 Noroeste 0 903.1 -- 22
2020-09-11 15:00:00 27.9 7 Noroeste 18 Oeste 0 903.4 -- 23
2020-09-11 14:00:00 27.3 7 Norte 19 Oeste 0 903.7 -- 26
2020-09-11 13:00:00 25.9 9 Noroeste 22 Oeste 0 904.2 -- 29
2020-09-11 12:00:00 25.1 10 Oeste 17 Oeste 0 904.3 -- 30
2020-09-11 11:00:00 23.4 5 Oeste 10 Oeste 0 904.2 -- 33
2020-09-11 10:00:00 21.4 4 Este 8 Sudeste 0 904.2 -- 36
2020-09-11 09:00:00 17.1 3 Nordeste 7 Sudeste 0 904.1 -- 47
2020-09-11 08:00:00 14.5 7 Este 10 Este 0 903.7 -- 53
2020-09-11 07:00:00 14.7 5 Este 8 Este 0 903.5 -- 51
2020-09-11 06:00:00 15.1 6 Este 9 Nordeste 0 903.5 -- 50
2020-09-11 05:00:00 15.3 5 Nordeste 10 Este 0 903.9 -- 48
2020-09-11 04:00:00 15.5 6 Nordeste 12 Sudeste 0 904.1 -- 48
2020-09-11 03:00:00 17.1 10 Sudeste 14 Sudeste 0 904.5 -- 41
2020-09-11 02:00:00 17.2 7 Este 15 Este 0 904.7 -- 42
2020-09-11 01:00:00 17.7 7 Este 14 Este 0 904.9 -- 41
2020-09-11 00:00:00 19 9 Este 17 Nordeste 0 905.1 -- 38
2020-09-10 23:00:00 20.2 9 Este 18 Este 0 905.1 -- 34
2020-09-10 22:00:00 21 7 Este 17 Este 0 905 -- 32
2020-09-10 21:00:00 23.5 8 Norte 19 Nordeste 0 904.5 -- 26
2020-09-10 20:00:00 25 8 Norte 22 Norte 0 904.6 -- 26
2020-09-10 19:00:00 26.4 11 Noroeste 23 Norte 0 904.6 -- 26
2020-09-10 18:00:00 26.5 14 Noroeste 26 Noroeste 0 904.7 -- 26
2020-09-10 17:00:00 27.3 9 Norte 20 Norte 0 905.2 -- 22
2020-09-10 16:00:00 27 10 Noroeste 30 Noroeste 0 905.7 -- 25
2020-09-10 15:00:00 26.5 12 Oeste 25 Noroeste 0 906.2 -- 27
2020-09-10 14:00:00 25.4 6 Norte 18 Norte 0 906.8 -- 27
2020-09-10 13:00:00 23.7 8 Oeste 16 Sudoeste 0 907.5 -- 32
2020-09-10 12:00:00 22.2 5 Sudoeste 11 Oeste 0 908 -- 37
2020-09-10 11:00:00 19.8 6 Oeste 12 Sudoeste 0 908.1 -- 40
2020-09-10 10:00:00 17.6 5 Sur 9 Sur 0 907.9 -- 43
2020-09-10 09:00:00 14.7 0 Calma 7 Nordeste 0 907.5 -- 50
2020-09-10 08:00:00 12.5 5 Nordeste 10 Sudeste 0 907.1 -- 57
2020-09-10 07:00:00 12.6 9 Sudeste 12 Sudeste 0 906.9 -- 52
2020-09-10 06:00:00 13.1 4 Este 9 Sur 0 907.1 -- 52
2020-09-10 05:00:00 13.2 7 Sur 12 Sur 0 907.4 -- 49
2020-09-10 04:00:00 14.5 4 Este 8 Sur 0 907.5 -- 47
2020-09-10 03:00:00 15.5 7 Este 12 Este 0 907.7 -- 46
2020-09-10 02:00:00 16.5 4 Nordeste 12 Este 0 907.8 -- 42
2020-09-10 01:00:00 16.5 7 Este 10 Sudeste 0 907.8 -- 40
2020-09-10 00:00:00 17.6 3 Nordeste 11 Sudeste 0 908.1 -- 37
2020-09-09 23:00:00 19.1 8 Nordeste 17 Este 0 908.1 -- 34
2020-09-09 22:00:00 21.3 8 Este 19 Norte 0 907.7 -- 28
2020-09-09 21:00:00 23 8 Norte 15 Noroeste 0 907 -- 25
2020-09-09 20:00:00 24.7 9 Noroeste 19 Noroeste 0 906.8 -- 23
2020-09-09 19:00:00 26 6 Noroeste 19 Noroeste 0 906.7 -- 21
2020-09-09 18:00:00 26.4 9 Noroeste 22 Noroeste 0 906.7 -- 21
2020-09-09 17:00:00 26.4 7 Nordeste 23 Nordeste 0 907 -- 21
2020-09-09 16:00:00 26.1 9 Noroeste 21 Oeste 0 907.3 -- 22
2020-09-09 15:00:00 25.5 13 Oeste 21 Noroeste 0 907.7 -- 23
2020-09-09 14:00:00 25 6 Norte 17 Noroeste 0 908.2 -- 24
2020-09-09 13:00:00 23.9 7 Noroeste 18 Noroeste 0 908.6 -- 25
2020-09-09 12:00:00 22.7 9 Oeste 16 Oeste 0 908.9 -- 29
2020-09-09 11:00:00 20.6 5 Noroeste 11 Noroeste 0 909.2 -- 33
2020-09-09 10:00:00 19.2 5 Nordeste 17 Este 0 909 -- 36
2020-09-09 09:00:00 15.1 8 Este 13 Este 0 908.8 -- 50
2020-09-09 08:00:00 12.8 5 Este 15 Este 0 908.3 -- 52
2020-09-09 07:00:00 13.2 4 Este 8 Sudeste 0 908 -- 51
2020-09-09 06:00:00 13.5 4 Este 9 Este 0 907.8 -- 48
2020-09-09 05:00:00 13.9 4 Este 7 Este 0 907.8 -- 44
2020-09-09 04:00:00 14.3 3 Noroeste 7 Oeste 0 907.8 -- 41
2020-09-09 03:00:00 15.4 4 Este 10 Este 0 907.8 -- 40
2020-09-09 02:00:00 15.5 6 Este 8 Nordeste 0 908 -- 39
2020-09-09 01:00:00 15.9 6 Nordeste 14 Noroeste 0 908.4 -- 36
2020-09-09 00:00:00 17.8 8 Este 15 Este 0 908.1 -- 32
2020-09-08 23:00:00 19.6 13 Este 23 Este 0 908.2 -- 27
2020-09-08 22:00:00 19.5 14 Sudeste 26 Sudeste 0 907.9 -- 27
2020-09-08 21:00:00 20 15 Sudeste 23 Sudeste 0 907.5 -- 27
2020-09-08 20:00:00 22.8 10 Sudoeste 27 Sudoeste 0 907.2 -- 24
2020-09-08 19:00:00 25 13 Sudoeste 21 Oeste 0 906.9 -- 20
2020-09-08 18:00:00 25.2 8 Oeste 25 Oeste 0 906.8 -- 20
2020-09-08 17:00:00 25.1 13 Oeste 27 Sudoeste 0 907.1 -- 21
2020-09-08 16:00:00 24 7 Norte 19 Noroeste 0 907.7 -- 21
2020-09-08 15:00:00 23.5 7 Noroeste 21 Noroeste 0 908 -- 23
2020-09-08 14:00:00 21.7 9 Noroeste 19 Oeste 0 908.3 -- 28
2020-09-08 13:00:00 20.7 11 Noroeste 21 Noroeste 0 908.6 -- 30
2020-09-08 12:00:00 19 8 Noroeste 16 Noroeste 0 908.8 -- 35
2020-09-08 11:00:00 15.2 6 Oeste 12 Noroeste 0 908.9 -- 47
2020-09-08 10:00:00 12.9 5 Oeste 8 Nordeste 0 908.8 -- 47
2020-09-08 09:00:00 10.7 4 Nordeste 13 Este 0 908.7 -- 54
2020-09-08 08:00:00 7.7 5 Este 12 Sudeste 0 908.5 -- 67
2020-09-08 07:00:00 8 9 Este 13 Este 0 908.4 -- 67
2020-09-08 06:00:00 7.1 3 Sudoeste 9 Sur 0 908.2 -- 70
2020-09-08 05:00:00 7.9 3 Sur 9 Sur 0 908.1 -- 65
2020-09-08 04:00:00 8.5 7 Sur 10 Sudeste 0 908.2 -- 62
2020-09-08 03:00:00 9.2 8 Sur 10 Sur 0 908.6 -- 62
2020-09-08 02:00:00 9.6 4 Sudeste 14 Sur 0 908.7 -- 59
2020-09-08 01:00:00 10.9 8 Sur 13 Sur 0 908.7 -- 54
2020-09-08 00:00:00 12.8 7 Sudeste 13 Nordeste 0 908.5 -- 50
2020-09-07 23:00:00 14.6 6 Nordeste 15 Norte 0 908.2 -- 45
2020-09-07 22:00:00 16.2 10 Nordeste 25 Norte 0 908.1 -- 41
2020-09-07 21:00:00 18 13 Nordeste 25 Norte 0 907.6 -- 37
2020-09-07 20:00:00 19.9 15 Norte 33 Norte 0 907.1 -- 34
2020-09-07 19:00:00 21.8 13 Norte 29 Norte 0 906.6 -- 31
2020-09-07 18:00:00 22.8 10 Norte 23 Nordeste 0 906.5 -- 25
2020-09-07 17:00:00 22.4 14 Noroeste 28 Norte 0 906.5 -- 24
2020-09-07 16:00:00 22.1 9 Noroeste 26 Nordeste 0 906.7 -- 29
2020-09-07 15:00:00 21.2 10 Norte 25 Nordeste 0 907.2 -- 31
2020-09-07 14:00:00 19.5 11 Norte 27 Nordeste 0 907.5 -- 37
2020-09-07 13:00:00 18.1 10 Norte 24 Norte 0 907.8 -- 42
2020-09-07 12:00:00 16.9 9 Noroeste 23 Nordeste 0 907.9 -- 48
2020-09-07 11:00:00 14.6 6 Nordeste 15 Nordeste 0 907.8 -- 59
2020-09-07 10:00:00 12.3 4 Oeste 8 Sudoeste 0 907.6 -- 69
2020-09-07 09:00:00 9.8 5 Sur 9 Sur 0 907.4 -- 79
2020-09-07 08:00:00 7.8 4 Sur 6 Sudoeste 0 906.9 -- 83
2020-09-07 07:00:00 8.4 6 Sudoeste 11 Sur 0 906.5 -- 82
2020-09-07 06:00:00 8.8 8 Sur 9 Sur 0 906.2 -- 78
2020-09-07 05:00:00 9.3 7 Sudoeste 12 Sudoeste 0 906.2 -- 78
2020-09-07 04:00:00 10.2 8 Sudoeste 10 Sudoeste 0 906.2 -- 72
2020-09-07 03:00:00 11.1 5 Oeste 11 Sudoeste 0 906.4 -- 68
2020-09-07 02:00:00 12.4 7 Oeste 12 Nordeste 0 906.4 -- 62
2020-09-07 01:00:00 13.9 8 Nordeste 15 Nordeste 0 906.3 -- 57
2020-09-07 00:00:00 15.5 4 Nordeste 14 Nordeste 0 906.1 -- 52
2020-09-06 23:00:00 17.1 5 Norte 19 Nordeste 0 906.1 -- 49
2020-09-06 22:00:00 18.7 8 Nordeste 20 Nordeste 0 905.9 -- 45
2020-09-06 21:00:00 21.4 9 Nordeste 26 Nordeste 0 904.7 -- 41
2020-09-06 20:00:00 24.1 12 Nordeste 34 Norte 0 904.2 -- 34
2020-09-06 19:00:00 26 14 Norte 31 Norte 0 904 -- 32
2020-09-06 18:00:00 27.3 14 Norte 32 Nordeste 0 903.8 -- 31
2020-09-06 17:00:00 28.4 11 Noroeste 25 Noroeste 0 904 -- 28
2020-09-06 16:00:00 28 10 Noroeste 23 Noroeste 0 904.3 -- 29
2020-09-06 15:00:00 27.8 10 Oeste 20 Noroeste 0 904.7 -- 30
2020-09-06 14:00:00 26 8 Noroeste 17 Norte 0 905.1 -- 35
2020-09-06 13:00:00 24.2 7 Norte 14 Norte 0 905.6 -- 43
2020-09-06 12:00:00 20.5 5 Oeste 12 Oeste 0 905.9 -- 54
2020-09-06 11:00:00 18.3 6 Oeste 11 Oeste 0 905.9 -- 63
2020-09-06 10:00:00 16.1 4 Sur 8 Sudoeste 0 905.5 -- 70
2020-09-06 09:00:00 13.3 4 Oeste 6 Oeste 0 905.6 -- 79
2020-09-06 08:00:00 12.8 2 Sur 5 Oeste 0 905.2 -- 77
2020-09-06 07:00:00 12.7 5 Oeste 8 Sur 0 905.1 -- 80
2020-09-06 06:00:00 13.3 3 Noroeste 7 Sudeste 0 905.2 -- 80
2020-09-06 05:00:00 13.3 4 Sur 14 Sudoeste 0 905.4 -- 76
2020-09-06 04:00:00 14.5 5 Sur 9 Sur 0 905.3 -- 73
2020-09-06 03:00:00 15.6 5 Sudoeste 9 Sudoeste 0 905.5 -- 69
2020-09-06 02:00:00 16.7 7 Sudoeste 14 Oeste 0 905.6 -- 61
2020-09-06 01:00:00 19.6 11 Sur 22 Sur 0 905.6 -- 46
2020-09-06 00:00:00 21.1 8 Sur 21 Nordeste 0 905.5 -- 36
2020-09-05 23:00:00 23.4 17 Este 34 Nordeste 0 905.4 -- 31
2020-09-05 22:00:00 24.2 18 Nordeste 33 Nordeste 0 905.1 -- 32
2020-09-05 21:00:00 26.3 18 Nordeste 35 Nordeste 0 904.7 -- 29
2020-09-05 20:00:00 29.2 6 Norte 19 Noroeste 0 904.3 -- 20
2020-09-05 19:00:00 30.3 10 Noroeste 20 Noroeste 0 904.4 -- 19
2020-09-05 18:00:00 30.5 10 Nordeste 21 Norte 0 904.7 -- 20
2020-09-05 17:00:00 31 7 Sudoeste 22 Nordeste 0 905.1 -- 19
2020-09-05 16:00:00 31.2 8 Este 26 Noroeste 0 905.9 -- 20
2020-09-05 15:00:00 29.8 9 Norte 18 Noroeste 0 906.7 -- 22
2020-09-05 14:00:00 29.5 7 Noroeste 19 Oeste 0 907 -- 23
2020-09-05 13:00:00 27.8 6 Noroeste 13 Noroeste 0 907.7 -- 25
2020-09-05 12:00:00 26.3 6 Noroeste 17 Noroeste 0 908 -- 27
2020-09-05 11:00:00 23.8 6 Noroeste 12 Noroeste 0 908.1 -- 32
2020-09-05 10:00:00 21.8 4 Oeste 9 Este 0 907.9 -- 37
2020-09-05 09:00:00 19.2 7 Nordeste 12 Este 0 907.5 -- 40
2020-09-05 08:00:00 16.4 5 Este 8 Este 0 907.4 -- 47
2020-09-05 07:00:00 16.9 3 Sur 10 Este 0 907.2 -- 43
2020-09-05 06:00:00 18.1 8 Nordeste 13 Nordeste 0 907.2 -- 41
2020-09-05 05:00:00 18 8 Este 15 Este 0 907.4 -- 43
2020-09-05 04:00:00 18.1 6 Este 10 Este 0 907.9 -- 44
2020-09-05 03:00:00 17.5 7 Oeste 17 Oeste 0 908.1 -- 44
2020-09-05 02:00:00 19.6 6 Este 10 Sudeste 0 908.1 -- 40
2020-09-05 01:00:00 20.3 7 Este 11 Sudeste 0 908.5 -- 37
2020-09-05 00:00:00 21.3 7 Nordeste 13 Este 0 908.6 -- 35
2020-09-04 23:00:00 21.9 5 Este 14 Sudeste 0 908.5 -- 34
2020-09-04 22:00:00 23 11 Sudeste 16 Sur 0 908.5 -- 31
2020-09-04 21:00:00 25.7 10 Sudoeste 22 Sudoeste 0 908.1 -- 25
2020-09-04 20:00:00 28.5 15 Sudoeste 26 Sudoeste 0 907.9 -- 22
2020-09-04 19:00:00 30.1 15 Sudoeste 24 Sudoeste 0 907.8 -- 21
2020-09-04 18:00:00 30.7 12 Sudoeste 27 Oeste 0 907.9 -- 20
2020-09-04 17:00:00 30.5 17 Oeste 36 Sudoeste 0 908.1 -- 20
2020-09-04 16:00:00 30.5 20 Sudoeste 36 Oeste 0 908.7 -- 22
2020-09-04 15:00:00 30.4 16 Sudoeste 34 Sudoeste 0 909.3 -- 23
2020-09-04 14:00:00 30 21 Sudoeste 33 Sudoeste 0 909.7 -- 23
2020-09-04 13:00:00 28.7 22 Oeste 32 Oeste 0 910.2 -- 24
2020-09-04 12:00:00 28.3 5 Sudoeste 14 Sudoeste 0 910.5 -- 25
2020-09-04 11:00:00 26.7 3 Este 9 Este 0 910.5 -- 30
2020-09-04 10:00:00 24.2 4 Este 8 Este 0 910.2 -- 36
2020-09-04 09:00:00 20.1 7 Sur 14 Este 0 909.9 -- 46
2020-09-04 08:00:00 18.5 5 Norte 18 Sudeste 0 909.5 -- 51
2020-09-04 07:00:00 19.1 8 Este 20 Sudeste 0 909.2 -- 47
2020-09-04 06:00:00 20.1 13 Sudeste 24 Sudeste 0 909.1 -- 38
2020-09-04 05:00:00 20.5 15 Sudeste 25 Sudeste 0 909 -- 34
2020-09-04 04:00:00 18.9 13 Sudeste 17 Sudeste 0 909.1 -- 34
2020-09-04 03:00:00 18.4 6 Este 15 Sudeste 0 909.4 -- 38
2020-09-04 02:00:00 18.5 6 Este 11 Sudeste 0 909.5 -- 38
2020-09-04 01:00:00 19.3 5 Este 9 Este 0 909.5 -- 36
2020-09-04 00:00:00 19.9 6 Este 10 Este 0 909.6 -- 36
2020-09-03 23:00:00 21.3 5 Este 12 Este 0 909.3 -- 35
2020-09-03 22:00:00 22.8 6 Este 14 Sudeste 0 909 -- 28
2020-09-03 21:00:00 25.8 5 Nordeste 10 Noroeste 0 908.2 -- 18
2020-09-03 20:00:00 28.3 5 Oeste 13 Noroeste 0 907.7 -- 16
2020-09-03 19:00:00 29.4 5 Oeste 15 Oeste 0 907.6 -- 15
2020-09-03 18:00:00 29.3 8 Oeste 21 Oeste 0 907.5 -- 15
2020-09-03 17:00:00 29.8 8 Sudoeste 20 Sudoeste 0 907.7 -- 16
2020-09-03 16:00:00 28.7 9 Oeste 20 Oeste 0 907.9 -- 17
2020-09-03 15:00:00 27.7 8 Noroeste 21 Oeste 0 908.4 -- 18
2020-09-03 14:00:00 27.1 6 Sudoeste 16 Oeste 0 908.6 -- 20
2020-09-03 13:00:00 26.2 6 Norte 16 Oeste 0 908.8 -- 23
2020-09-03 12:00:00 24.9 5 Oeste 13 Norte 0 908.8 -- 25
2020-09-03 11:00:00 24.1 5 Este 10 Nordeste 0 908.7 -- 28
2020-09-03 10:00:00 21.2 4 Este 10 Este 0 908.3 -- 34
2020-09-03 09:00:00 16.7 6 Este 12 Nordeste 0 908 -- 44
2020-09-03 08:00:00 13.6 6 Este 14 Nordeste 0 907.5 -- 50
2020-09-03 07:00:00 13.1 8 Este 10 Este 0 907.1 -- 51
2020-09-03 06:00:00 12.8 7 Este 10 Nordeste 0 906.9 -- 51
2020-09-03 05:00:00 13.3 5 Este 7 Este 0 907 -- 49
2020-09-03 04:00:00 14 3 Este 7 Este 0 906.8 -- 45
2020-09-03 03:00:00 14.8 3 Este 9 Este 0 906.7 -- 43
2020-09-03 02:00:00 15.7 8 Este 16 Este 0 906.7 -- 41
2020-09-03 01:00:00 16.3 9 Este 16 Este 0 906.6 -- 40
2020-09-03 00:00:00 16.8 12 Este 15 Este 0 906.5 -- 40
2020-09-02 23:00:00 19 10 Nordeste 17 Nordeste 0 906.3 -- 34
2020-09-02 22:00:00 20.6 9 Este 14 Este 0 905.9 -- 29
2020-09-02 21:00:00 22.7 6 Norte 13 Norte 0 905.2 -- 25
2020-09-02 20:00:00 24.2 7 Noroeste 21 Noroeste 0 904.7 -- 24
2020-09-02 19:00:00 25.2 7 Norte 23 Oeste 0 904.3 -- 23
2020-09-02 18:00:00 25.5 10 Norte 18 Norte 0 904.1 -- 23
2020-09-02 17:00:00 25.5 9 Norte 24 Norte 0 903.9 -- 23
2020-09-02 16:00:00 25.4 7 Norte 22 Noroeste 0 904.1 -- 22
2020-09-02 15:00:00 25.5 9 Noroeste 26 Nordeste 0 904.3 -- 23
2020-09-02 14:00:00 24 11 Noroeste 21 Norte 0 904.4 -- 25
2020-09-02 13:00:00 22.9 8 Norte 17 Norte 0 904.5 -- 26
2020-09-02 12:00:00 21.2 8 Noroeste 14 Oeste 0 904.7 -- 28
2020-09-02 11:00:00 19.3 6 Norte 12 Norte 0 904.5 -- 32
2020-09-02 10:00:00 17.1 4 Nordeste 8 Nordeste 0 903.7 -- 36
2020-09-02 09:00:00 13.3 4 Sudeste 8 Sur 0 903.7 -- 46
2020-09-02 08:00:00 10.2 3 Sudoeste 8 Sur 0 903.4 -- 50
2020-09-02 07:00:00 11.2 3 Nordeste 7 Este 0 902.9 -- 49
2020-09-02 06:00:00 12.2 4 Este 5 Este 0 902.2 -- 46
2020-09-02 05:00:00 12.6 4 Este 5 Este 0 902 -- 42
2020-09-02 04:00:00 13.2 2 Nordeste 6 Este 0 901.9 -- 43
2020-09-02 03:00:00 13.7 3 Este 6 Sur 0 901.8 -- 41
2020-09-02 02:00:00 14 5 Este 10 Noroeste 0 901.9 -- 40
2020-09-02 01:00:00 15.9 5 Este 18 Este 0 901.6 -- 35
2020-09-02 00:00:00 17.4 14 Este 23 Este 0 901.3 -- 31
2020-09-01 23:00:00 17.4 10 Nordeste 16 Nordeste 0 901.3 -- 31
2020-09-01 22:00:00 19.3 9 Nordeste 19 Este 0 900.9 -- 27
2020-09-01 21:00:00 21.6 10 Nordeste 19 Nordeste 0 900.5 -- 24
2020-09-01 20:00:00 23.7 4 Noroeste 14 Noroeste 0 900 -- 19
2020-09-01 19:00:00 23.7 5 Norte 18 Noroeste 0 900 -- 18
2020-09-01 18:00:00 25.1 6 Norte 22 Noroeste 0 899.9 -- 15
2020-09-01 17:00:00 25.4 8 Sudoeste 21 Noroeste 0 900.2 -- 14
2020-09-01 16:00:00 24.5 7 Noroeste 24 Sudoeste 0 900.5 -- 15
2020-09-01 15:00:00 24.1 8 Noroeste 22 Oeste 0 901.2 -- 16
2020-09-01 14:00:00 23.1 9 Oeste 24 Oeste 0 901.5 -- 21
2020-09-01 13:00:00 22 7 Sudoeste 13 Noroeste 0 902 -- 22
2020-09-01 12:00:00 20 6 Sudoeste 11 Oeste 0 902.4 -- 25
2020-09-01 11:00:00 18 3 Oeste 6 Noroeste 0 902.6 -- 27
2020-09-01 10:00:00 16.6 2 Nordeste 9 Este 0 902.5 -- 34
2020-09-01 09:00:00 14.4 3 Sudoeste 14 Sudoeste 0 902.3 -- 41
2020-09-01 08:00:00 14.6 4 Este 13 Sudeste 0 902 -- 37
2020-09-01 07:00:00 14.2 5 Este 10 Este 0 902.5 -- 38
2020-09-01 06:00:00 14.2 5 Este 10 Este 0 902.4 -- 37
2020-09-01 05:00:00 14.4 8 Este 11 Nordeste 0 902.8 -- 36
2020-09-01 04:00:00 13.9 5 Este 8 Nordeste 0 903.2 -- 38
2020-09-01 03:00:00 13.7 5 Este 13 Este 0 903.5 -- 37
2020-09-01 02:00:00 14 8 Este 16 Este 0 903.9 -- 36
2020-09-01 01:00:00 14.2 9 Este 18 Este 0 904.1 -- 36
2020-09-01 00:00:00 14.6 8 Este 18 Este 0 904.3 -- 36
2020-08-31 23:00:00 15.4 12 Este 17 Este 0 904.3 -- 35
2020-08-31 22:00:00 17.9 5 Nordeste 12 Noroeste 0 904.2 -- 26
2020-08-31 21:00:00 19.4 5 Noroeste 16 Noroeste 0 903.9 -- 24
2020-08-31 20:00:00 21.7 8 Noroeste 18 Noroeste 0 903.9 -- 21
2020-08-31 19:00:00 22 7 Noroeste 18 Oeste 0 903.9 -- 22
2020-08-31 18:00:00 22.6 9 Noroeste 24 Oeste 0 904.3 -- 21
2020-08-31 17:00:00 23 12 Oeste 24 Oeste 0 904.6 -- 21
2020-08-31 16:00:00 22.7 8 Noroeste 20 Oeste 0 904.9 -- 23
2020-08-31 15:00:00 21.8 7 Oeste 25 Oeste 0 905.5 -- 23
2020-08-31 14:00:00 21.1 9 Oeste 20 Oeste 0 905.7 -- 23
2020-08-31 13:00:00 20.2 10 Oeste 18 Oeste 0 905.9 -- 25
2020-08-31 12:00:00 19.2 8 Oeste 18 Sur 0 906.3 -- 27
2020-08-31 11:00:00 18.1 4 Nordeste 9 Este 0 906.3 -- 28
2020-08-31 10:00:00 15.3 4 Nordeste 11 Este 0 906.1 -- 35
2020-08-31 09:00:00 11.5 6 Nordeste 12 Este 0 906 -- 43
2020-08-31 08:00:00 8.7 9 Este 17 Este 0 905.7 -- 50
2020-08-31 07:00:00 8.6 7 Este 17 Este 0 905.4 -- 51
2020-08-31 06:00:00 9.1 11 Este 16 Este 0 905.4 -- 49
2020-08-31 05:00:00 9.2 9 Este 18 Este 0 905.5 -- 49
2020-08-31 04:00:00 8.9 10 Este 16 Este 0 905.7 -- 49
2020-08-31 03:00:00 8.8 4 Este 17 Sudeste 0 906 -- 52
2020-08-31 02:00:00 9.2 9 Sudeste 17 Este 0 905.8 -- 49
2020-08-31 01:00:00 10.4 12 Este 19 Este 0 905.8 -- 49
2020-08-31 00:00:00 11.5 9 Nordeste 16 Este 0 905.7 -- 50
2020-08-30 23:00:00 12.2 9 Este 21 Nordeste 0 905.2 -- 45
2020-08-30 22:00:00 13.5 12 Nordeste 17 Este 0 904.6 -- 40
2020-08-30 21:00:00 15 7 Norte 23 Nordeste 0 903.9 -- 37
2020-08-30 20:00:00 16 14 Nordeste 28 Nordeste 0 903.5 -- 35
2020-08-30 19:00:00 16.6 14 Nordeste 35 Nordeste 0 903.1 -- 34
2020-08-30 18:00:00 17.9 10 Norte 30 Nordeste 0 902.8 -- 33
2020-08-30 17:00:00 18.3 10 Norte 31 Nordeste 0 902.6 -- 33
2020-08-30 16:00:00 17.9 13 Norte 33 Norte 0 903.1 -- 37
2020-08-30 15:00:00 16.4 10 Norte 29 Nordeste 0 903.2 -- 39
2020-08-30 14:00:00 16 12 Norte 27 Norte 0 903.5 -- 45
2020-08-30 13:00:00 15.6 14 Nordeste 26 Nordeste 0 903.5 -- 46
2020-08-30 12:00:00 12.4 14 Norte 29 Nordeste 0 903.6 -- 57
2020-08-30 11:00:00 12 16 Nordeste 29 Nordeste 0 903.3 -- 58
2020-08-30 10:00:00 9.9 5 Noroeste 10 Nordeste 0 903 -- 68
2020-08-30 09:00:00 8.4 4 Este 7 Este 0 902.7 -- 75
2020-08-30 08:00:00 5.9 3 Este 5 Noroeste 0 902.3 -- 82
2020-08-30 07:00:00 5.9 2 Oeste 8 Sudoeste 0 901.8 -- 80
2020-08-30 06:00:00 7.1 3 Oeste 8 Nordeste 0 901.5 -- 77
2020-08-30 05:00:00 7.7 4 Nordeste 13 Nordeste 0 901.6 -- 74
2020-08-30 04:00:00 8.2 9 Nordeste 23 Nordeste 0 901.4 -- 70
2020-08-30 03:00:00 8.9 14 Nordeste 33 Nordeste 0 901.6 -- 67
2020-08-30 02:00:00 9.3 18 Nordeste 30 Este 0 901.8 -- 68
2020-08-30 01:00:00 9.8 14 Nordeste 31 Nordeste 0 901.8 -- 72
2020-08-30 00:00:00 10.5 14 Nordeste 31 Nordeste 0 901.2 -- 70
2020-08-29 23:00:00 11.2 13 Nordeste 30 Nordeste 0 900.6 -- 70
2020-08-29 22:00:00 12.3 13 Nordeste 43 Nordeste 0 899.8 -- 68
2020-08-29 21:00:00 15.4 10 Norte 36 Noroeste 0 898.7 -- 45
2020-08-29 20:00:00 17.2 19 Noroeste 38 Noroeste 0 897.8 -- 39
2020-08-29 19:00:00 17.3 15 Norte 36 Norte 0 897.5 -- 36
2020-08-29 18:00:00 18.6 23 Noroeste 40 Noroeste 0 896.9 -- 35
2020-08-29 17:00:00 18.1 20 Oeste 37 Noroeste 0 896.9 -- 40
2020-08-29 16:00:00 17.5 13 Noroeste 41 Noroeste 0 897.1 -- 36
2020-08-29 15:00:00 17.2 12 Noroeste 28 Noroeste 0 897.5 -- 40
2020-08-29 14:00:00 16 14 Noroeste 32 Noroeste 0 897.6 -- 44
2020-08-29 13:00:00 15 14 Noroeste 24 Noroeste 0 897.9 -- 50
2020-08-29 12:00:00 14.1 13 Noroeste 26 Noroeste 0 897.9 -- 50
2020-08-29 11:00:00 12.5 10 Noroeste 16 Noroeste 0 897.9 -- 57
2020-08-29 10:00:00 12.3 6 Norte 17 Norte 0 897.6 -- 60
2020-08-29 09:00:00 10.5 4 Este 8 Este 0 897.3 -- 73
2020-08-29 08:00:00 8.7 3 Nordeste 9 Nordeste 0 897.1 -- 82
2020-08-29 07:00:00 9 2 Norte 10 Norte 0 897 -- 79
2020-08-29 06:00:00 9.6 4 Norte 14 Nordeste 0 896.7 -- 78
2020-08-29 05:00:00 9.9 4 Nordeste 10 Noroeste 0 896.8 -- 77
2020-08-29 04:00:00 10.1 6 Oeste 10 Noroeste 0 897.1 -- 78
2020-08-29 03:00:00 11.4 4 Norte 16 Nordeste 0 897.3 -- 74
2020-08-29 02:00:00 12.1 11 Norte 23 Nordeste 0 897.5 -- 75
2020-08-29 01:00:00 13.1 7 Nordeste 19 Norte 0 897.7 -- 73
2020-08-29 00:00:00 15.3 9 Noroeste 31 Noroeste 0 897.3 -- 66
2020-08-28 23:00:00 17.8 18 Oeste 27 Oeste 0 897 -- 40
2020-08-28 22:00:00 19.2 15 Oeste 27 Oeste 0 896.6 -- 30
2020-08-28 21:00:00 21.1 15 Oeste 38 Oeste 0 896.1 -- 21
2020-08-28 20:00:00 23.8 17 Oeste 38 Oeste 0 895.8 -- 19
2020-08-28 19:00:00 25.4 19 Oeste 35 Sudoeste 0 895.9 -- 16
2020-08-28 18:00:00 25.8 18 Oeste 39 Oeste 0 896.4 -- 15
2020-08-28 17:00:00 25.9 20 Oeste 36 Oeste 0 896.9 -- 19
2020-08-28 16:00:00 25.3 15 Oeste 31 Oeste 0 897.5 -- 28
2020-08-28 15:00:00 24.7 14 Oeste 27 Oeste 0 898.2 -- 37
2020-08-28 14:00:00 23.4 14 Oeste 27 Sudoeste 0 898.8 -- 48
2020-08-28 13:00:00 21.5 9 Oeste 27 Oeste 0 899.7 -- 57
2020-08-28 12:00:00 20.4 7 Sur 18 Oeste 0 900.4 -- 60
2020-08-28 11:00:00 19 10 Oeste 18 Oeste 0 900.7 -- 66
2020-08-28 10:00:00 18 12 Oeste 19 Oeste 0 900.7 -- 71
2020-08-28 09:00:00 16.8 8 Sudoeste 14 Sudoeste 0 901 -- 72
2020-08-28 08:00:00 16.2 9 Sudoeste 15 Sudoeste 0 901.1 -- 71
2020-08-28 07:00:00 16.9 8 Oeste 15 Sudoeste 0 901.5 -- 69
2020-08-28 06:00:00 17.9 6 Sur 10 Sudoeste 0 901.7 -- 65
2020-08-28 05:00:00 18.4 7 Sudoeste 9 Sudoeste 0 901.9 -- 59
2020-08-28 04:00:00 19.5 4 Oeste 16 Sudoeste 0 902 -- 52
2020-08-28 03:00:00 19.4 11 Sur 15 Sudoeste 0 902.6 -- 50
2020-08-28 02:00:00 20.9 11 Sudoeste 18 Sudoeste 0 903.6 -- 45
2020-08-28 01:00:00 21.8 12 Sudoeste 19 Sudoeste 0 903.7 -- 40
2020-08-28 00:00:00 21.9 7 Sur 12 Sur 0 903.6 -- 40
2020-08-27 23:00:00 24.3 6 Este 11 Sudeste 0 903.3 -- 34
2020-08-27 22:00:00 26.9 3 Nordeste 11 Noroeste 0 903.2 -- 29
2020-08-27 21:00:00 28.1 7 Noroeste 17 Oeste 0 903.2 -- 26
2020-08-27 20:00:00 30.4 12 Oeste 24 Noroeste 0 903.1 -- 21
2020-08-27 19:00:00 31.7 9 Noroeste 23 Oeste 0 903.4 -- 20
2020-08-27 18:00:00 32.3 11 Oeste 23 Noroeste 0 904 -- 17
2020-08-27 17:00:00 31.5 8 Sur 24 Oeste 0 904.6 -- 22
2020-08-27 16:00:00 31.3 6 Oeste 24 Noroeste 0 905.4 -- 24
2020-08-27 15:00:00 31.2 5 Sur 18 Oeste 0 906 -- 25
2020-08-27 14:00:00 30.5 9 Oeste 18 Oeste 0 906.5 -- 30
2020-08-27 13:00:00 28.4 9 Oeste 19 Noroeste 0 907.2 -- 36
2020-08-27 12:00:00 26.7 9 Oeste 18 Noroeste 0 907.4 -- 39
2020-08-27 11:00:00 25.1 9 Oeste 18 Oeste 0 907.4 -- 42
2020-08-27 10:00:00 24.4 7 Oeste 10 Oeste 0 907.2 -- 41
2020-08-27 09:00:00 21.6 3 Este 6 Este 0 907.1 -- 41
2020-08-27 08:00:00 18 5 Este 7 Este 0 907.2 -- 50
2020-08-27 07:00:00 17.8 4 Este 7 Este 0 907.2 -- 48
2020-08-27 06:00:00 18.7 4 Este 12 Sudeste 0 907.1 -- 43
2020-08-27 05:00:00 18.9 9 Sudeste 12 Sudeste 0 907.3 -- 41
2020-08-27 04:00:00 18.9 4 Este 10 Sudeste 0 907.4 -- 41
2020-08-27 03:00:00 19.6 5 Sudoeste 12 Sudoeste 0 907.4 -- 40
2020-08-27 02:00:00 21.5 7 Nordeste 12 Nordeste 0 907.6 -- 36
2020-08-27 01:00:00 22.3 8 Este 12 Este 0 907.9 -- 35
2020-08-27 00:00:00 23 8 Este 12 Este 0 908 -- 34
2020-08-26 23:00:00 25 7 Este 14 Este 0 908 -- 31
2020-08-26 22:00:00 26.8 6 Este 13 Este 0 907.4 -- 26
2020-08-26 21:00:00 28.5 10 Noroeste 21 Oeste 0 906.6 -- 23
2020-08-26 20:00:00 31.1 12 Oeste 23 Oeste 0 906.2 -- 21
2020-08-26 19:00:00 32.5 10 Noroeste 25 Noroeste 0 906.2 -- 20
2020-08-26 18:00:00 32.7 10 Noroeste 22 Noroeste 0 906.2 -- 20
2020-08-26 17:00:00 33.1 13 Oeste 24 Noroeste 0 906.3 -- 21
2020-08-26 16:00:00 32.7 7 Oeste 23 Oeste 0 906.7 -- 21
2020-08-26 15:00:00 32.1 11 Oeste 24 Noroeste 0 907 -- 21
2020-08-26 14:00:00 31.3 10 Oeste 20 Oeste 0 907.2 -- 20
2020-08-26 13:00:00 30.1 6 Oeste 17 Oeste 0 907.6 -- 22
2020-08-26 12:00:00 28.2 8 Oeste 14 Norte 0 907.7 -- 27
2020-08-26 11:00:00 26.1 4 Nordeste 10 Noroeste 0 907.5 -- 31
2020-08-26 10:00:00 23.9 3 Noroeste 8 Noroeste 0 907.2 -- 32
2020-08-26 09:00:00 20 0 Calma 10 Nordeste 0 906.7 -- 38
2020-08-26 08:00:00 18.2 8 Nordeste 12 Este 0 906.2 -- 40
2020-08-26 07:00:00 17.6 6 Este 10 Este 0 906 -- 42
2020-08-26 06:00:00 18.2 3 Sudeste 10 Sudeste 0 906.1 -- 39
2020-08-26 05:00:00 18.8 6 Este 9 Este 0 906.3 -- 38
2020-08-26 04:00:00 19.2 4 Este 6 Sudeste 0 906.5 -- 37
2020-08-26 03:00:00 20.1 4 Este 14 Sudeste 0 906.5 -- 35
2020-08-26 02:00:00 20.5 12 Sudeste 14 Sur 0 906.3 -- 35
2020-08-26 01:00:00 21.2 2 Sudeste 18 Sudeste 0 906.4 -- 35
2020-08-26 00:00:00 22.8 6 Nordeste 9 Nordeste 0 905.9 -- 33
2020-08-25 23:00:00 24.2 5 Este 12 Este 0 905.5 -- 31
2020-08-25 22:00:00 26.6 6 Este 11 Este 0 904.8 -- 26
2020-08-25 21:00:00 29 6 Noroeste 14 Noroeste 0 903.9 -- 22
2020-08-25 20:00:00 31.3 8 Noroeste 16 Noroeste 0 903.6 -- 19
2020-08-25 19:00:00 32.4 10 Oeste 22 Oeste 0 903.7 -- 18
2020-08-25 18:00:00 32.7 9 Oeste 23 Sudoeste 0 903.7 -- 18
2020-08-25 17:00:00 32.9 12 Oeste 21 Oeste 0 903.8 -- 17
2020-08-25 16:00:00 32.5 9 Oeste 22 Noroeste 0 904.1 -- 18
2020-08-25 15:00:00 31.6 6 Noroeste 25 Oeste 0 904.5 -- 18
2020-08-25 14:00:00 31.3 8 Noroeste 24 Oeste 0 904.7 -- 20
2020-08-25 13:00:00 29.8 12 Oeste 23 Noroeste 0 904.7 -- 23
2020-08-25 12:00:00 28.5 9 Oeste 18 Oeste 0 904.8 -- 29
2020-08-25 11:00:00 27.6 6 Oeste 11 Oeste 0 904.5 -- 29
2020-08-25 10:00:00 25.6 5 Este 8 Este 0 904 -- 35
2020-08-25 09:00:00 21.4 5 Este 9 Este 0 903.8 -- 45
2020-08-25 08:00:00 17.8 6 Este 11 Este 0 903.5 -- 53
2020-08-25 07:00:00 17.8 6 Este 10 Este 0 903.2 -- 53
2020-08-25 06:00:00 17.5 7 Nordeste 9 Este 0 903.5 -- 53
2020-08-25 05:00:00 17.6 5 Este 8 Este 0 903.7 -- 48
2020-08-25 04:00:00 18.2 5 Este 12 Sudeste 0 903.7 -- 46
2020-08-25 03:00:00 18.8 4 Este 10 Este 0 903.8 -- 41
2020-08-25 02:00:00 19.3 6 Nordeste 11 Este 0 904.2 -- 39
2020-08-25 01:00:00 20 5 Este 12 Nordeste 0 904.3 -- 37
2020-08-25 00:00:00 20.9 5 Este 14 Este 0 904.3 -- 35
2020-08-24 23:00:00 21.9 5 Nordeste 15 Este 0 904.4 -- 34
2020-08-24 22:00:00 24.9 4 Este 10 Oeste 0 903.8 -- 27
2020-08-24 21:00:00 26.7 6 Noroeste 13 Noroeste 0 903.3 -- 24
2020-08-24 20:00:00 28.8 10 Oeste 19 Oeste 0 903.2 -- 20
2020-08-24 19:00:00 29.9 10 Oeste 20 Oeste 0 903.3 -- 17
2020-08-24 18:00:00 30.2 3 Sudoeste 20 Oeste 0 903.5 -- 18
2020-08-24 17:00:00 29.9 11 Oeste 30 Oeste 0 904 -- 19
2020-08-24 16:00:00 29.4 12 Oeste 25 Oeste 0 904.5 -- 21
2020-08-24 15:00:00 28.8 10 Oeste 22 Oeste 0 905 -- 24
2020-08-24 14:00:00 27.2 7 Norte 23 Noroeste 0 905.1 -- 27
2020-08-24 13:00:00 26.3 6 Norte 19 Nordeste 0 905.6 -- 29
2020-08-24 12:00:00 24.5 6 Noroeste 13 Noroeste 0 906 -- 31
2020-08-24 11:00:00 21.8 5 Noroeste 10 Oeste 0 906.2 -- 34
2020-08-24 10:00:00 20.1 4 Sudoeste 7 Sudoeste 0 906.1 -- 37
2020-08-24 09:00:00 17.2 2 Este 5 Nordeste 0 906.3 -- 45
2020-08-24 08:00:00 13.5 3 Este 10 Sudeste 0 906 -- 52
2020-08-24 07:00:00 13.5 5 Sudeste 12 Este 0 905.8 -- 51
2020-08-24 06:00:00 14.1 5 Este 10 Este 0 905.8 -- 49
2020-08-24 05:00:00 14.8 5 Nordeste 6 Nordeste 0 906.1 -- 48
2020-08-24 04:00:00 15.4 4 Este 6 Sudeste 0 906 -- 47
2020-08-24 03:00:00 15.7 4 Este 6 Sudeste 0 906.3 -- 46
2020-08-24 02:00:00 16.3 6 Sudeste 9 Sudeste 0 906.6 -- 43
2020-08-24 01:00:00 17.6 5 Este 15 Nordeste 0 906.6 -- 41
2020-08-24 00:00:00 19.5 12 Nordeste 22 Este 0 906.6 -- 33